Time;durP1;ratioP1;P1;durP2;ratioP2;P2;SDS_P1;SDS_P2;PMS_P1;PMS_P2;Temp;Humidity;BMP_temperature;BMP_pressure;BME280_temperature;BME280_humidity;BME280_pressure;Samples;Min_cycle;Max_cycle;Signal;HPM_P1;HPM_P2
2021/06/02 00:50:23;;;;;;;9.85;4.00;;;358.40;2073.60;;;;;;5200788;22;20069;-77
2021/06/02 00:52:49;;;;;;;4.75;3.50;;;358.40;2073.60;;;;;;5015757;28;20048;-77
2021/06/02 00:55:15;;;;;;;8.55;4.10;;;358.40;2099.20;;;;;;5032434;28;20093;-78
2021/06/02 00:57:47;;;;;;;8.43;3.65;;;358.40;2099.20;;;;;;5031931;28;20026;-78
2021/06/02 01:00:15;;;;;;;4.80;3.58;;;358.40;2099.20;;;;;;5033850;28;20025;-79
2021/06/02 01:02:47;;;;;;;7.82;3.60;;;358.40;2099.20;;;;;;5035816;28;20002;-78
2021/06/02 01:05:14;;;;;;;6.47;3.75;;;358.40;2099.20;;;;;;5031434;28;20122;-80
2021/06/02 01:07:40;;;;;;;7.28;3.70;;;333.70;2099.20;;;;;;5034318;28;20033;-78
2021/06/02 01:10:07;;;;;;;6.38;3.60;;;333.70;2099.20;;;;;;5033497;28;20050;-79
2021/06/02 01:12:33;;;;;;;8.27;3.60;;;333.70;2099.20;;;;;;5033149;28;20414;-78
2021/06/02 01:14:59;;;;;;;7.55;3.88;;;333.70;2099.20;;;;;;5039718;28;20021;-77
2021/06/02 01:17:52;;;;;;;7.45;3.40;;;333.70;2099.20;;;;;;5018254;28;20033;-78
2021/06/02 01:20:24;;;;;;;9.02;3.67;;;333.70;2099.20;;;;;;5025587;28;20033;-78
2021/06/02 01:22:50;;;;;;;8.50;4.03;;;333.70;2099.20;;;;;;5032339;28;20018;-78
2021/06/02 01:25:26;;;;;;;7.53;3.50;;;333.70;2099.20;;;;;;5026236;28;20439;-78
2021/06/02 01:27:52;;;;;;;5.97;3.75;;;333.70;2124.80;;;;;;4998442;28;20053;-78
2021/06/02 01:30:45;;;;;;;6.95;3.30;;;333.70;2124.80;;;;;;5037471;28;20032;-78
2021/06/02 01:33:45;;;;;;;4.68;3.65;;;333.60;2124.80;;;;;;5037100;28;20036;-79
2021/06/02 01:36:32;;;;;;;7.10;3.63;;;333.60;2124.80;;;;;;5036652;28;20041;-77
2021/06/02 01:39:33;;;;;;;4.50;3.65;;;333.60;2124.80;;;;;;5034407;28;20076;-78
2021/06/02 01:42:20;;;;;;;6.93;3.83;;;333.60;2124.80;;;;;;5023924;28;20023;-79
2021/06/02 01:45:13;;;;;;;6.55;3.60;;;333.60;2124.80;;;;;;5036779;28;20085;-78
2021/06/02 01:47:50;;;;;;;5.87;3.57;;;333.60;2124.80;;;;;;5036707;28;20025;-78
2021/06/02 01:50:45;;;;;;;8.48;3.80;;;333.60;2124.80;;;;;;5023820;28;20284;-78
2021/06/02 01:53:48;;;;;;;6.78;3.70;;;333.60;2150.40;;;;;;5014619;28;20042;-77
2021/06/02 01:56:33;;;;;;;6.35;3.25;;;333.60;2150.40;;;;;;4996207;28;20027;-78
2021/06/02 01:59:01;;;;;;;5.40;3.80;;;333.50;2124.80;;;;;;5004474;28;20031;-76
2021/06/02 02:02:01;;;;;;;6.18;3.50;;;333.50;2124.80;;;;;;5013490;28;20093;-79
2021/06/02 02:04:36;;;;;;;8.30;3.55;;;333.50;2150.40;;;;;;5017948;28;20019;-78
2021/06/02 02:07:27;;;;;;;5.63;3.28;;;333.50;2150.40;;;;;;5009011;28;20031;-78
2021/06/02 02:10:23;;;;;;;4.88;3.22;;;333.50;2150.40;;;;;;4999624;28;20044;-79
2021/06/02 02:13:16;;;;;;;7.60;3.78;;;333.50;2150.40;;;;;;5018385;28;20022;-78
2021/06/02 02:16:01;;;;;;;5.00;3.30;;;333.50;2150.40;;;;;;5023258;28;20003;-79
2021/06/02 02:18:47;;;;;;;4.85;3.40;;;333.50;2150.40;;;;;;5004500;28;20014;-79
2021/06/02 02:21:50;;;;;;;6.40;3.40;;;333.50;2150.40;;;;;;5016467;28;20057;-79
2021/06/02 02:24:41;;;;;;;8.85;3.70;;;333.40;2150.40;;;;;;5001486;28;20026;-79
2021/06/02 02:27:28;;;;;;;7.68;3.55;;;333.40;2150.40;;;;;;5001984;28;20022;-79
2021/06/02 02:29:57;;;;;;;6.78;3.67;;;;;;;;;;5019141;28;20031;-78
2021/06/02 02:32:44;;;;;;;6.72;3.45;;;333.40;2150.40;;;;;;5011031;28;20094;-78
2021/06/02 02:35:29;;;;;;;5.00;3.70;;;333.30;2150.40;;;;;;5013257;28;20029;-78
2021/06/02 02:38:06;;;;;;;7.63;3.70;;;333.30;2150.40;;;;;;5007651;28;20030;-79
2021/06/02 02:40:49;;;;;;;6.05;3.85;;;333.30;2176.00;;;;;;5022532;28;20037;-79
2021/06/02 02:43:32;;;;;;;7.72;3.95;;;333.30;2176.00;;;;;;5017027;28;20048;-79
2021/06/02 02:46:21;;;;;;;5.72;3.72;;;333.20;2176.00;;;;;;5017009;28;20018;-79
2021/06/02 02:48:58;;;;;;;4.82;3.65;;;333.20;2176.00;;;;;;5003635;28;20057;-78
2021/06/02 02:51:28;;;;;;;7.32;3.88;;;333.30;2176.00;;;;;;5017863;28;20414;-78
2021/06/02 02:54:05;;;;;;;7.03;3.45;;;333.20;2176.00;;;;;;5016059;28;20066;-78
2021/06/02 02:57:00;;;;;;;5.10;3.80;;;333.20;2176.00;;;;;;5016518;28;20026;-78
2021/06/02 02:59:40;;;;;;;7.55;3.47;;;333.20;2176.00;;;;;;5017331;28;20010;-78
2021/06/02 03:02:30;;;;;;;6.25;3.90;;;333.20;2201.60;;;;;;5015451;28;20057;-79
2021/06/02 03:05:34;;;;;;;7.40;3.63;;;333.10;2201.60;;;;;;5038230;28;20113;-80
2021/06/02 03:08:12;;;;;;;4.97;3.63;;;333.00;2201.60;;;;;;5016578;28;20030;-78
2021/06/02 03:11:12;;;;;;;7.50;3.85;;;;;;;;;;5023393;28;20025;-80
2021/06/02 03:14:05;;;;;;;12.35;3.85;;;333.00;2201.60;;;;;;5013366;28;20077;-79
2021/06/02 03:17:29;;;;;;;10.20;4.30;;;333.00;2201.60;;;;;;4959278;28;20034;-79
2021/06/02 03:20:32;;;;;;;7.07;3.90;;;333.00;2201.60;;;;;;4970576;29;20039;-79
2021/06/02 03:23:58;;;;;;;6.80;3.70;;;333.00;2227.20;;;;;;4978350;29;20075;-79
2021/06/02 03:27:05;;;;;;;4.78;3.70;;;333.00;2329.60;;;;;;4960490;29;20027;-79
2021/06/02 03:30:11;;;;;;;5.95;3.80;;;333.00;2227.20;;;;;;4974860;28;20032;-79
2021/06/02 03:33:17;;;;;;;8.85;3.90;;;332.90;2227.20;;;;;;4963953;28;20039;-78
2021/06/02 03:36:27;;;;;;;9.45;4.00;;;332.90;2227.20;;;;;;4990805;28;20040;-79
2021/06/02 03:39:32;;;;;;;10.18;3.80;;;332.90;2252.80;;;;;;4974404;29;20074;-80
2021/06/02 03:42:36;;;;;;;10.25;4.20;;;332.90;2252.80;;;;;;4975974;28;20063;-78
2021/06/02 03:45:42;;;;;;;8.63;4.28;;;332.90;2252.80;;;;;;4976707;28;20043;-79
2021/06/02 03:49:27;;;;;;;6.18;3.92;;;332.90;2252.80;;;;;;4976953;29;20035;-79
2021/06/02 03:52:36;;;;;;;9.43;3.78;;;332.90;2252.80;;;;;;4863799;29;20026;-79
2021/06/02 03:55:31;;;;;;;7.25;3.85;;;333.00;2329.60;;;;;;4814065;29;20045;-78
2021/06/02 03:58:23;;;;;;;9.07;4.22;;;332.90;2278.40;;;;;;4821426;29;20033;-78
2021/06/02 04:01:09;;;;;;;7.90;3.97;;;332.90;2278.40;;;;;;4802679;29;20019;-79
2021/06/02 04:04:07;;;;;;;9.27;4.07;;;333.10;2329.60;;;;;;4818351;29;20055;-79
2021/06/02 04:06:59;;;;;;;7.28;4.00;;;333.00;2278.40;;;;;;4822317;29;20046;-78
2021/06/02 04:09:29;;;;;;;6.68;3.85;;;333.00;2278.40;;;;;;4821723;29;20047;-79
2021/06/02 04:12:10;;;;;;;8.40;3.90;;;333.10;2278.40;;;;;;4813435;29;20062;-78
2021/06/02 04:15:02;;;;;;;9.38;4.70;;;333.20;2278.40;;;;;;4816939;29;20050;-79
2021/06/02 04:17:38;;;;;;;12.10;4.43;;;333.30;2278.40;;;;;;4822660;29;20034;-78
2021/06/02 04:20:10;;;;;;;8.77;3.90;;;333.30;2278.40;;;;;;4812236;29;20039;-78
2021/06/02 04:22:47;;;;;;;9.93;4.37;;;333.30;2278.40;;;;;;4848494;29;20038;-78
2021/06/02 04:25:16;;;;;;;5.55;3.85;;;333.40;2304.00;;;;;;4873380;29;20354;-78
2021/06/02 04:27:46;;;;;;;8.82;4.30;;;333.40;2304.00;;;;;;4916782;29;20009;-78
2021/06/02 04:30:17;;;;;;;5.55;3.83;;;333.50;2304.00;;;;;;4909074;29;20074;-78
2021/06/02 04:32:46;;;;;;;5.38;4.07;;;333.50;2304.00;;;;;;4973214;28;20046;-78
2021/06/02 04:35:18;;;;;;;9.50;4.70;;;333.60;2304.00;;;;;;4990698;28;20121;-79
2021/06/02 04:37:45;;;;;;;7.50;4.70;;;333.70;2304.00;;;;;;4996835;28;20498;-78
2021/06/02 04:40:13;;;;;;;8.85;4.22;;;358.40;2304.00;;;;;;4962610;28;20106;-75
2021/06/02 04:42:40;;;;;;;7.70;3.67;;;358.40;2304.00;;;;;;4974408;28;20023;-75
2021/06/02 04:45:08;;;;;;;13.05;4.47;;;358.50;2304.00;;;;;;4973367;28;20023;-75
2021/06/02 04:47:35;;;;;;;10.18;4.97;;;358.50;2304.00;;;;;;4972755;28;20548;-76
2021/06/02 04:50:27;;;;;;;11.77;5.15;;;358.60;2304.00;;;;;;4974787;28;20033;-76
2021/06/02 04:53:38;;;;;;;14.15;4.78;;;358.70;2304.00;;;;;;4993185;28;20559;-74
2021/06/02 04:56:59;;;;;;;9.25;4.10;;;358.80;2304.00;;;;;;4993522;28;20042;-77
2021/06/02 05:00:03;;;;;;;8.73;3.75;;;358.80;2304.00;;;;;;4986841;28;20030;-77
2021/06/02 05:02:29;;;;;;;;;;;359.00;2304.00;;;;;;4989950;28;20539;-73
2021/06/02 05:05:24;;;;;;;7.63;3.70;;;359.10;2304.00;;;;;;4989573;28;19913;-73
2021/06/02 05:08:14;;;;;;;5.50;4.05;;;359.30;2304.00;;;;;;4934617;29;20036;-73
2021/06/02 05:11:04;;;;;;;6.63;4.22;;;384.00;2304.00;;;;;;4932350;29;20035;-77
2021/06/02 05:14:20;;;;;;;9.10;3.78;;;384.30;2304.00;;;;;;4951302;28;20031;-78
2021/06/02 05:16:46;;;;;;;9.45;4.15;;;;;;;;;;4936279;29;20166;-73
2021/06/02 05:19:56;;;;;;;10.68;4.28;;;;;;;;;;4947163;29;20477;-76
2021/06/02 05:22:32;;;;;;;27.92;6.05;;;;;;;;;;4935653;29;20511;-72
2021/06/02 05:25:16;;;;;;;10.75;4.38;;;;;;;;;;4935176;29;20040;-73
2021/06/02 05:27:45;;;;;;;9.32;4.70;;;;;;;;;;4935085;29;20039;-73
2021/06/02 05:30:40;;;;;;;10.15;3.92;;;;;;;;;;4936476;29;20039;-72
2021/06/02 05:33:25;;;;;;;9.05;4.25;;;;;;;;;;4886616;29;20057;-75
2021/06/02 05:36:09;;;;;;;7.30;4.13;;;;;;;;;;4878289;29;20543;-74
2021/06/02 05:38:43;;;;;;;7.88;4.15;;;;;;;;;;4864176;29;20414;-73
2021/06/02 05:41:15;;;;;;;10.00;4.32;;;;;;;;;;4879641;29;20101;-74
2021/06/02 05:44:09;;;;;;;7.10;4.90;;;;;;;;;;4875939;29;20407;-73
2021/06/02 05:46:41;;;;;;;10.35;5.10;;;;;;;;;;4896915;29;20047;-74
2021/06/02 05:49:34;;;;;;;11.13;5.13;;;;;;;;;;4890219;29;20047;-75
2021/06/02 05:52:17;;;;;;;10.52;5.60;;;;;;;;;;4873619;29;20067;-73
2021/06/02 05:55:02;;;;;;;13.13;5.50;;;;;;;;;;4881372;29;20589;-74
2021/06/02 05:57:36;;;;;;;12.23;5.43;;;;;;;;;;4880130;29;20043;-73
2021/06/02 06:00:05;;;;;;;11.38;5.30;;;;;;;;;;4877302;29;20048;-74
2021/06/02 06:02:34;;;;;;;10.70;5.45;;;;;;;;;;4877916;29;20561;-73
2021/06/02 06:05:12;;;;;;;14.20;6.45;;;;;;;;;;4870828;29;20032;-74
2021/06/02 06:07:41;;;;;;;11.73;4.78;;;;;;;;;;4882405;29;20865;-75
2021/06/02 06:10:26;;;;;;;14.90;5.13;;;;;;;;;;4949680;28;20031;-75
2021/06/02 06:12:52;;;;;;;12.90;4.95;;;;;;;;;;4974690;28;20039;-73
2021/06/02 06:15:43;;;;;;;9.88;5.00;;;;;;;;;;4966718;28;20027;-74
2021/06/02 06:18:28;;;;;;;11.13;5.15;;;;;;;;;;4955528;28;20031;-76
2021/06/02 06:20:56;;;;;;;11.38;4.60;;;;;;;;;;4973011;28;20464;-75
2021/06/02 06:23:32;;;;;;;7.78;4.50;;;;;;;;;;4974515;28;20377;-75
2021/06/02 06:26:16;;;;;;;6.50;4.22;;;;;;;;;;4969649;28;20073;-80
2021/06/02 06:28:45;;;;;;;11.13;5.47;;;;;;;;;;4969261;28;20041;-76
2021/06/02 06:31:15;;;;;;;11.63;5.57;;;;;;;;;;4968655;28;20037;-76
2021/06/02 06:33:43;;;;;;;10.90;4.70;;;;;;;;;;4970412;28;20031;-73
2021/06/02 06:36:10;;;;;;;11.13;5.20;;;;;;;;;;4979538;28;20027;-80
2021/06/02 06:38:48;;;;;;;13.18;5.43;;;;;;;;;;4956119;28;20058;-86
2021/06/02 06:41:16;;;;;;;12.73;5.53;;;;;;;;;;4974255;28;20022;-82
2021/06/02 06:43:43;;;;;;;11.07;5.53;;;;;;;;;;4980202;28;20027;-77
2021/06/02 06:46:10;;;;;;;12.90;4.47;;;;;;;;;;4967161;28;20026;-77
2021/06/02 06:48:37;;;;;;;13.23;4.72;;;;;;;;;;4969990;28;20031;-82
2021/06/02 06:51:03;;;;;;;6.50;4.55;;;;;;;;;;4967133;28;20089;-81
2021/06/02 06:53:29;;;;;;;12.88;4.75;;;;;;;;;;4992433;28;20551;-81
2021/06/02 06:55:56;;;;;;;7.25;4.18;;;;;;;;;;4968124;28;20043;-85
2021/06/02 06:58:24;;;;;;;21.42;6.15;;;;;;;;;;4988602;28;20026;-80
2021/06/02 07:00:50;;;;;;;11.07;4.15;;;;;;;;;;4993333;28;20081;-73
2021/06/02 07:03:16;;;;;;;18.83;5.88;;;;;;;;;;4975459;28;20383;-75
2021/06/02 07:05:43;;;;;;;9.45;4.63;;;;;;;;;;4992923;28;20514;-85
2021/06/02 07:08:10;;;;;;;13.52;5.40;;;;;;;;;;4970008;28;20118;-86
2021/06/02 07:10:37;;;;;;;12.90;4.78;;;;;;;;;;4988659;28;20037;-86
2021/06/02 07:13:08;;;;;;;9.18;4.70;;;;;;;;;;4966188;28;20138;-85
2021/06/02 07:15:35;;;;;;;10.25;4.57;;;;;;;;;;4974450;28;20112;-87
2021/06/02 07:18:01;;;;;;;12.07;4.30;;;;;;;;;;4978142;28;21554;-80
2021/06/02 07:20:29;;;;;;;9.75;4.10;;;;;;;;;;4992823;28;20539;-87
2021/06/02 07:22:55;;;;;;;6.88;4.38;;;;;;;;;;4971864;28;20030;-73
2021/06/02 07:25:23;;;;;;;10.57;3.83;;;;;;;;;;4992295;28;20109;-73
2021/06/02 07:27:50;;;;;;;9.73;4.07;;;;;;;;;;4991313;28;20508;-72
2021/06/02 07:30:18;;;;;;;10.20;4.35;;;;;;;;;;4987363;28;20122;-73
2021/06/02 07:32:44;;;;;;;10.52;3.80;;;;;;;;;;4992170;28;20507;-76
2021/06/02 07:35:11;;;;;;;10.40;3.80;;;;;;;;;;4991762;28;20117;-78
2021/06/02 07:37:39;;;;;;;7.18;3.63;;;;;;;;;;4991795;28;20046;-75
2021/06/02 07:40:06;;;;;;;6.47;3.35;;;;;;;;;;4976009;28;20049;-80
2021/06/02 07:42:33;;;;;;;6.20;3.70;;;;;;;;;;4992207;28;20480;-78
2021/06/02 07:44:59;;;;;;;6.82;3.20;;;;;;;;;;4974621;28;20470;-73
2021/06/02 07:47:25;;;;;;;10.07;3.40;;;;;;;;;;4989998;28;20034;-79
2021/06/02 07:49:51;;;;;;;7.55;3.25;;;;;;;;;;4992018;28;20026;-80
2021/06/02 07:52:17;;;;;;;8.50;3.53;;;;;;;;;;4974772;28;20037;-83
2021/06/02 07:54:43;;;;;;;9.93;3.40;;;;;;;;;;4975118;28;20503;-79
2021/06/02 07:57:10;;;;;;;8.88;3.95;;;;;;;;;;4991788;28;20027;-84
2021/06/02 07:59:36;;;;;;;6.32;3.28;;;;;;;;;;4991324;28;20041;-77
2021/06/02 08:02:03;;;;;;;9.07;3.83;;;;;;;;;;4989010;28;20031;-82
2021/06/02 08:04:31;;;;;;;7.68;3.50;;;;;;;;;;4989953;28;20491;-76
2021/06/02 08:07:00;;;;;;;6.38;3.10;;;;;;;;;;4995591;28;20154;-81
2021/06/02 08:09:26;;;;;;;7.78;3.25;;;;;;;;;;4995568;28;20537;-74
2021/06/02 08:11:52;;;;;;;8.07;3.63;;;;;;;;;;4989327;28;20377;-80
2021/06/02 08:14:18;;;;;;;8.52;3.00;;;;;;;;;;4989508;28;20121;-81
2021/06/02 08:16:44;;;;;;;7.20;3.22;;;;;;;;;;4991082;28;20026;-82
2021/06/02 08:19:10;;;;;;;5.53;3.00;;;;;;;;;;4989702;28;20026;-83
2021/06/02 08:21:37;;;;;;;6.60;3.17;;;;;;;;;;4986006;28;20089;-84
2021/06/02 08:24:03;;;;;;;16.95;3.63;;;;;;;;;;4986265;28;20073;-75
2021/06/02 08:26:32;;;;;;;5.40;3.30;;;;;;;;;;4987089;28;20029;-77
2021/06/02 08:28:58;;;;;;;10.13;3.50;;;;;;;;;;4990164;28;20019;-72
2021/06/02 08:31:24;;;;;;;8.35;3.33;;;;;;;;;;4997135;28;20030;-77
2021/06/02 08:33:50;;;;;;;6.97;3.05;;;;;;;;;;4992758;28;20049;-84
2021/06/02 08:36:16;;;;;;;4.80;3.20;;;;;;;;;;4991284;28;20030;-76
2021/06/02 08:38:42;;;;;;;7.97;3.15;;;;;;;;;;4987711;28;20476;-75
2021/06/02 08:41:08;;;;;;;5.57;2.72;;;;;;;;;;4994760;28;20041;-75
2021/06/02 08:43:35;;;;;;;8.30;3.03;;;;;;;;;;4994888;28;20033;-78
2021/06/02 08:46:01;;;;;;;7.50;3.08;;;;;;;;;;4994242;28;20114;-81
2021/06/02 08:48:28;;;;;;;5.20;2.90;;;;;;;;;;4994168;28;20030;-77
2021/06/02 08:50:54;;;;;;;20.00;3.47;;;;;;;;;;4995031;28;20492;-79
2021/06/02 08:53:22;;;;;;;7.47;3.30;;;;;;;;;;4992403;28;20049;-77
2021/06/02 08:55:51;;;;;;;25.80;3.25;;;;;;;;;;4991107;28;20030;-80
2021/06/02 08:58:21;;;;;;;5.05;2.70;;;;;;;;;;4994793;28;20509;-82
2021/06/02 09:00:47;;;;;;;6.38;2.90;;;;;;;;;;4991394;28;20018;-77
2021/06/02 09:03:14;;;;;;;8.45;2.70;;;;;;;;;;4994986;28;20030;-79
2021/06/02 09:05:40;;;;;;;6.88;2.90;;;;;;;;;;4994404;28;20838;-75
2021/06/02 09:08:08;;;;;;;8.77;3.08;;;;;;;;;;4994186;28;20081;-80
2021/06/02 09:10:38;;;;;;;6.85;2.60;;;;;;;;;;4994606;28;20151;-74
2021/06/02 09:13:04;;;;;;;8.25;3.10;;;;;;;;;;4987702;28;20034;-76
2021/06/02 09:15:35;;;;;;;8.07;2.80;;;;;;;;;;4991020;28;20030;-75
2021/06/02 09:18:06;;;;;;;4.30;2.78;;;;;;;;;;4991756;28;20030;-74
2021/06/02 09:20:37;;;;;;;4.45;2.70;;;;;;;;;;4994330;28;20034;-78
2021/06/02 09:23:23;;;;;;;5.05;2.88;;;;;;;;;;4983770;28;20117;-72
2021/06/02 09:25:51;;;;;;;5.38;2.80;;;;;;;;;;4992232;28;20113;-73
2021/06/02 09:28:17;;;;;;;5.50;2.78;;;;;;;;;;4991585;28;20491;-77
2021/06/02 09:30:43;;;;;;;7.18;2.75;;;;;;;;;;4991787;28;20022;-74
2021/06/02 09:33:09;;;;;;;5.53;2.63;;;;;;;;;;4994524;28;20518;-74
2021/06/02 09:35:35;;;;;;;5.68;2.60;;;;;;;;;;4993872;28;20033;-73
2021/06/02 09:38:01;;;;;;;7.53;2.60;;;;;;;;;;4991767;28;20031;-74
2021/06/02 09:40:33;;;;;;;4.45;2.30;;;;;;;;;;4994854;28;20026;-76
2021/06/02 09:43:00;;;;;;;8.00;2.67;;;;;;;;;;4994479;28;20440;-76
2021/06/02 09:45:27;;;;;;;7.85;2.90;;;;;;;;;;4989976;28;20492;-76
2021/06/02 09:47:54;;;;;;;5.80;2.80;;;;;;;;;;4987478;28;20109;-75
2021/06/02 09:50:26;;;;;;;9.93;3.00;;;;;;;;;;4993717;28;20050;-75
2021/06/02 09:52:52;;;;;;;7.35;2.58;;;;;;;;;;4994706;28;20062;-76
2021/06/02 09:55:29;;;;;;;7.03;3.25;;;;;;;;;;4995694;28;20030;-76
2021/06/02 09:58:01;;;;;;;6.93;2.60;;;;;;;;;;4997520;28;20019;-77
2021/06/02 10:00:28;;;;;;;6.97;2.88;;;;;;;;;;4998279;28;20022;-76
2021/06/02 10:02:58;;;;;;;6.55;2.80;;;;;;;;;;4991355;28;20480;-78
2021/06/02 10:05:25;;;;;;;5.82;2.72;;;;;;;;;;4994429;28;20015;-81
2021/06/02 10:07:51;;;;;;;6.00;2.97;;;;;;;;;;4991978;28;20031;-77
2021/06/02 10:10:19;;;;;;;4.43;2.83;;;;;;;;;;4993698;28;20033;-76
2021/06/02 10:12:59;;;;;;;6.50;2.80;;;;;;;;;;4994256;28;20053;-75
2021/06/02 10:15:29;;;;;;;3.80;2.53;;;;;;;;;;4992863;28;20027;-77
2021/06/02 10:17:57;;;;;;;4.50;2.72;;;;;;;;;;5003035;28;20057;-76
2021/06/02 10:20:23;;;;;;;9.70;2.50;;;;;;;;;;4985315;28;20026;-76
2021/06/02 10:22:53;;;;;;;4.72;2.60;;;;;;;;;;4994003;28;20057;-76
2021/06/02 10:25:20;;;;;;;7.75;2.88;;;;;;;;;;4976596;28;20046;-76
2021/06/02 10:27:49;;;;;;;9.27;3.40;;;;;;;;;;4996287;28;20018;-76
2021/06/02 10:30:15;;;;;;;5.22;2.63;;;;;;;;;;4994115;28;20030;-75
2021/06/02 10:32:41;;;;;;;3.70;2.85;;;;;;;;;;4994113;28;20380;-77
2021/06/02 10:35:08;;;;;;;6.15;2.70;;;;;;;;;;4992885;28;20034;-78
2021/06/02 10:37:35;;;;;;;6.40;2.80;;;;;;;;;;4993071;28;20026;-77
2021/06/02 10:40:13;;;;;;;7.50;2.70;;;;;;;;;;4989954;28;20058;-76
2021/06/02 10:42:58;;;;;;;5.47;2.60;;;;;;;;;;4988018;28;20029;-79
2021/06/02 10:45:26;;;;;;;5.43;2.70;;;;;;;;;;4985175;28;20033;-78
2021/06/02 10:47:54;;;;;;;4.93;2.95;;;;;;;;;;4983184;28;20388;-76
2021/06/02 10:50:31;;;;;;;6.15;3.30;;;;;;;;;;4985778;28;20625;-75
2021/06/02 10:52:59;;;;;;;7.32;3.00;;;;;;;;;;4983764;28;20073;-78
2021/06/02 10:55:44;;;;;;;6.35;2.92;;;;;;;;;;4986668;28;20027;-75
2021/06/02 10:58:22;;;;;;;5.72;2.70;;;;;;;;;;4980259;28;20034;-75
2021/06/02 11:00:50;;;;;;;6.45;3.35;;;;;;;;;;4980331;28;20026;-74
2021/06/02 11:03:20;;;;;;;8.30;3.13;;;;;;;;;;4985037;28;20023;-76
2021/06/02 11:05:46;;;;;;;3.47;2.70;;;;;;;;;;4977254;28;20026;-76
2021/06/02 11:08:12;;;;;;;6.05;2.70;;;;;;;;;;4981880;28;20370;-74
2021/06/02 11:10:38;;;;;;;8.23;2.70;;;;;;;;;;4977606;28;20031;-75
2021/06/02 11:13:05;;;;;;;5.80;2.70;;;;;;;;;;4993729;28;20122;-77
2021/06/02 11:15:31;;;;;;;7.43;3.15;;;;;;;;;;4994089;28;20033;-75
2021/06/02 11:18:06;;;;;;;8.18;2.83;;;;;;;;;;4990222;28;20028;-84
2021/06/02 11:20:59;;;;;;;5.72;3.10;;;;;;;;;;4992218;28;20026;-74
2021/06/02 11:23:35;;;;;;;6.45;2.60;;;;;;;;;;4973754;28;20030;-73
2021/06/02 11:26:34;;;;;;;6.22;2.67;;;;;;;;;;4990215;28;20034;-75
2021/06/02 11:29:13;;;;;;;5.50;3.00;;;;;;;;;;4910651;29;20055;-76
2021/06/02 11:31:39;;;;;;;4.53;2.53;;;;;;;;;;4914330;29;20036;-75
2021/06/02 11:34:24;;;;;;;6.20;2.90;;;;;;;;;;4913768;29;20168;-75
2021/06/02 11:37:00;;;;;;;5.80;2.72;;;;;;;;;;4903683;29;20028;-76
2021/06/02 11:39:26;;;;;;;7.65;3.00;;;;;;;;;;4908485;29;20406;-92
2021/06/02 11:41:57;;;;;;;6.20;2.92;;;;;;;;;;4912719;29;20036;-79
2021/06/02 11:44:24;;;;;;;9.55;2.97;;;;;;;;;;4901922;29;20533;-83
2021/06/02 11:46:50;;;;;;;6.03;2.65;;;;;;;;;;4905148;29;20180;-86
2021/06/02 11:49:30;;;;;;;5.22;2.50;;;;;;;;;;4908114;29;20032;-81
2021/06/02 11:52:05;;;;;;;5.80;2.63;;;;;;;;;;4902563;29;20597;-77
2021/06/02 11:54:49;;;;;;;4.93;2.70;;;;;;;;;;4907634;29;20127;-85
2021/06/02 11:57:36;;;;;;;8.43;3.25;;;;;;;;;;4909504;29;20115;-77
2021/06/02 12:00:04;;;;;;;5.40;2.80;;;;;;;;;;4897643;29;20036;-79
2021/06/02 12:02:30;;;;;;;6.93;2.88;;;;;;;;;;4905013;29;20032;-74
2021/06/02 12:05:32;;;;;;;12.98;3.55;;;;;;;;;;4948087;28;20039;-80
2021/06/02 12:08:00;;;;;;;9.02;3.00;;;;;;;;;;4934777;28;20513;-73
2021/06/02 12:10:29;;;;;;;5.18;2.67;;;;;;;;;;4939140;28;20036;-72
2021/06/02 12:12:55;;;;;;;8.55;2.92;;;;;;;;;;4936754;28;20027;-73
2021/06/02 12:15:21;;;;;;;6.50;3.47;;;;;;;;;;4945319;28;20050;-79
2021/06/02 12:17:49;;;;;;;3.50;2.63;;;;;;;;;;4935023;28;20556;-72
2021/06/02 12:20:18;;;;;;;7.05;2.90;;;;;;;;;;4934596;28;20047;-72
2021/06/02 12:22:44;;;;;;;7.68;3.03;;;;;;;;;;4938274;28;20068;-72
2021/06/02 12:25:16;;;;;;;6.45;2.70;;;;;;;;;;4935426;28;20035;-74
2021/06/02 12:27:46;;;;;;;5.13;2.55;;;;;;;;;;4938808;28;20035;-75
2021/06/02 12:30:12;;;;;;;6.88;2.90;;;;;;;;;;4937646;28;20050;-78
2021/06/02 12:32:57;;;;;;;5.80;2.58;;;;;;;;;;4941265;28;20259;-72
2021/06/02 12:35:24;;;;;;;4.63;2.72;;;;;;;;;;4938718;28;20095;-78
2021/06/02 12:38:03;;;;;;;3.92;2.92;;;;;;;;;;4942184;28;20038;-80
2021/06/02 12:40:29;;;;;;;5.88;2.65;;;;;;;;;;4942978;28;20160;-76
2021/06/02 12:42:55;;;;;;;6.15;2.70;;;;;;;;;;4979259;28;20109;-75
2021/06/02 12:45:26;;;;;;;8.20;3.28;;;;;;;;;;4977439;28;20023;-74
2021/06/02 12:47:52;;;;;;;4.75;2.85;;;;;;;;;;4975767;28;20018;-78
2021/06/02 12:50:38;;;;;;;5.05;3.25;;;;;;;;;;4984267;28;20129;-78
2021/06/02 12:53:04;;;;;;;3.72;2.65;;;;;;;;;;4988000;28;20145;-76
2021/06/02 12:55:35;;;;;;;5.50;2.78;;;;;;;;;;4991944;28;20031;-82
2021/06/02 12:58:05;;;;;;;9.35;3.03;;;;;;;;;;4987400;28;20527;-79
2021/06/02 13:00:31;;;;;;;6.35;3.35;;;;;;;;;;4989205;28;20028;-75
2021/06/02 13:03:00;;;;;;;11.60;3.00;;;;;;;;;;4988702;28;20034;-81
2021/06/02 13:05:28;;;;;;;13.60;3.17;;;;;;;;;;4991171;28;20034;-76
2021/06/02 13:08:02;;;;;;;8.70;2.85;;;;;;;;;;4991191;28;20037;-73
2021/06/02 13:10:32;;;;;;;6.68;3.13;;;;;;;;;;4988572;28;20029;-79
2021/06/02 13:12:59;;;;;;;7.65;3.45;;;;;;;;;;4990851;28;20033;-77
2021/06/02 13:15:30;;;;;;;6.90;3.20;;;;;;;;;;4990726;28;20030;-78
2021/06/02 13:17:57;;;;;;;7.35;2.90;;;;;;;;;;4992788;28;20518;-75
2021/06/02 13:20:33;;;;;;;5.93;2.78;;;;;;;;;;4989249;28;20022;-77
2021/06/02 13:23:11;;;;;;;6.50;2.83;;;;;;;;;;4989299;28;20019;-77
2021/06/02 13:25:40;;;;;;;6.95;3.15;;;;;;;;;;4997824;28;20026;-77
2021/06/02 13:28:07;;;;;;;10.05;3.53;;;;;;;;;;5001106;28;20477;-76
2021/06/02 13:30:55;;;;;;;10.55;2.92;;;;;;;;;;4994854;28;20041;-76
2021/06/02 13:33:21;;;;;;;6.85;2.70;;;;;;;;;;4995207;28;20053;-75
2021/06/02 13:36:00;;;;;;;10.40;3.13;;;;;;;;;;4994961;28;20018;-74
2021/06/02 13:38:26;;;;;;;8.35;2.95;;;;;;;;;;4994734;28;20035;-75
2021/06/02 13:40:52;;;;;;;6.90;3.05;;;;;;;;;;4994684;28;20125;-73
2021/06/02 13:43:18;;;;;;;4.93;2.80;;;;;;;;;;4994092;28;20031;-72
2021/06/02 13:45:54;;;;;;;4.38;2.50;;;;;;;;;;4994036;28;20023;-73
2021/06/02 13:48:23;;;;;;;9.93;3.05;;;;;;;;;;4994846;28;20027;-74
2021/06/02 13:50:49;;;;;;;4.72;2.63;;;;;;;;;;4994011;28;20089;-72
2021/06/02 13:53:15;;;;;;;69.80;6.70;;;;;;;;;;4993575;28;20046;-73
2021/06/02 13:55:42;;;;;;;29.27;5.07;;;;;;;;;;4995161;28;20107;-72
2021/06/02 13:58:14;;;;;;;15.45;3.28;;;;;;;;;;4998490;28;20045;-73
2021/06/02 14:00:41;;;;;;;8.73;2.83;;;;;;;;;;4993519;28;20022;-73
2021/06/02 14:03:08;;;;;;;9.07;3.00;;;;;;;;;;4992590;28;20026;-72
2021/06/02 14:05:34;;;;;;;8.15;3.20;;;;;;;;;;4998693;28;20037;-73
2021/06/02 14:08:00;;;;;;;34.55;16.23;;;;;;;;;;4996333;28;20476;-73
2021/06/02 14:10:26;;;;;;;13.60;6.13;;;;;;;;;;4994296;28;20471;-72
2021/06/02 14:12:55;;;;;;;8.48;3.78;;;;;;;;;;4994210;28;20023;-76
2021/06/02 14:15:21;;;;;;;9.60;4.07;;;;;;;;;;4994388;28;20492;-73
2021/06/02 14:17:47;;;;;;;7.05;3.20;;;;;;;;;;4996204;28;20464;-73
2021/06/02 14:20:13;;;;;;;7.55;2.67;;;;;;;;;;4994553;28;20030;-75
2021/06/02 14:22:39;;;;;;;12.02;5.90;;;;;;;;;;4994152;28;20026;-76
2021/06/02 14:25:08;;;;;;;19.80;3.45;;;;;;;;;;4993935;28;20034;-76
2021/06/02 14:27:34;;;;;;;6.75;3.00;;;;;;;;;;4995340;28;20029;-74
2021/06/02 14:30:00;;;;;;;4.55;2.83;;;;;;;;;;4992488;28;20032;-72
2021/06/02 14:32:26;;;;;;;5.95;2.60;;;;;;;;;;4994014;28;20092;-76
2021/06/02 14:34:52;;;;;;;6.22;2.95;;;;;;;;;;4994462;28;20034;-75
2021/06/02 14:37:18;;;;;;;9.20;3.40;;;;;;;;;;4994542;28;20093;-74
2021/06/02 14:39:44;;;;;;;7.63;3.25;;;;;;;;;;4996100;28;20070;-73
2021/06/02 14:42:12;;;;;;;10.95;3.08;;;;;;;;;;4993830;28;20030;-75
2021/06/02 14:44:38;;;;;;;10.80;3.00;;;;;;;;;;4993601;28;20065;-74
2021/06/02 14:47:05;;;;;;;6.25;3.03;;;;;;;;;;4975502;28;20030;-76
2021/06/02 14:49:31;;;;;;;6.25;2.83;;;;;;;;;;4989919;28;20158;-76
2021/06/02 14:51:59;;;;;;;18.27;3.42;;;;;;;;;;4991595;28;20058;-79
2021/06/02 14:54:26;;;;;;;10.20;2.90;;;;;;;;;;4995955;28;20042;-78
2021/06/02 14:56:52;;;;;;;6.63;2.80;;;;;;;;;;4992209;28;20031;-75
2021/06/02 14:59:18;;;;;;;3.78;2.80;;;;;;;;;;4993343;28;20457;-77
2021/06/02 15:01:45;;;;;;;3.00;2.70;;;;;;;;;;4993056;28;20030;-75
2021/06/02 15:04:11;;;;;;;11.52;4.95;;;;;;;;;;4992117;28;20503;-77
2021/06/02 15:06:37;;;;;;;10.82;4.40;;;;;;;;;;4992080;28;20034;-74
2021/06/02 15:09:03;;;;;;;10.15;3.20;;;;;;;;;;4993044;28;20058;-75
2021/06/02 15:11:29;;;;;;;5.55;3.10;;;;;;;;;;4992639;28;20376;-76
2021/06/02 15:13:55;;;;;;;8.05;2.90;;;;;;;;;;4992972;28;20038;-75
2021/06/02 15:16:22;;;;;;;6.32;2.50;;;;;;;;;;4994037;28;20030;-73
2021/06/02 15:18:48;;;;;;;4.45;2.60;;;;;;;;;;4990812;28;20030;-75
2021/06/02 15:21:14;;;;;;;4.05;2.70;;;;;;;;;;4990396;28;20117;-75
2021/06/02 15:23:41;;;;;;;8.65;2.97;;;;;;;;;;4988530;28;20023;-82
2021/06/02 15:26:07;;;;;;;8.52;2.90;;;;;;;;;;4988789;28;20042;-81